Time;durP1;ratioP1;P1;durP2;ratioP2;P2;SDS_P1;SDS_P2;PMS_P1;PMS_P2;Temp;Humidity;BMP_temperature;BMP_pressure;BME280_temperature;BME280_humidity;BME280_pressure;Samples;Min_cycle;Max_cycle;Signal;HPM_P1;HPM_P2
2022/05/27 00:00:27;;;;;;;11.15;5.00;;;;;;;14.43;89.69;101701.13;1031313;28;20294;-81
2022/05/27 00:00:59;;;;;;;11.70;4.40;;;;;;;14.43;90.16;101716.38;1034176;28;20660;-82
2022/05/27 00:01:32;;;;;;;10.15;4.20;;;;;;;14.44;89.55;101716.16;1036946;28;20308;-81
2022/05/27 00:02:04;;;;;;;12.05;4.93;;;;;;;14.47;90.10;101705.00;1036594;28;20692;-82
2022/05/27 00:02:35;;;;;;;8.18;3.97;;;;;;;14.47;89.61;101713.03;1039303;28;20291;-82
2022/05/27 00:03:08;;;;;;;7.82;4.53;;;;;;;14.50;89.12;101709.09;1038044;28;20962;-81
2022/05/27 00:03:40;;;;;;;7.50;4.95;;;;;;;14.47;89.11;101713.03;1036269;28;20316;-81
2022/05/27 00:04:12;;;;;;;9.82;4.57;;;;;;;14.49;89.87;101710.94;1039410;28;20303;-82
2022/05/27 00:04:43;;;;;;;12.32;4.97;;;;;;;14.46;89.76;101706.03;1041801;28;20295;-81
2022/05/27 00:05:16;;;;;;;12.25;4.38;;;;;;;14.50;89.04;101707.22;1040313;28;20450;-81
2022/05/27 00:05:50;;;;;;;9.00;4.80;;;;;;;14.52;89.53;101705.19;1044977;28;20280;-81
2022/05/27 00:06:22;;;;;;;10.48;4.60;;;;;;;14.56;89.29;101710.09;1041405;28;20824;-81
2022/05/27 00:06:53;;;;;;;7.32;4.38;;;;;;;14.42;89.14;101696.75;1043037;28;20041;-82
2022/05/27 00:07:25;;;;;;;9.10;4.63;;;;;;;14.39;89.68;101713.28;1043291;28;20839;-81
2022/05/27 00:07:56;;;;;;;8.52;5.05;;;;;;;14.48;89.23;101705.81;1043687;28;20295;-81
2022/05/27 00:08:28;;;;;;;10.27;5.22;;;;;;;14.43;89.60;101706.47;1044691;28;20299;-81
2022/05/27 00:09:00;;;;;;;8.32;4.80;;;;;;;14.37;89.42;101696.59;1047768;28;21015;-82
2022/05/27 00:09:31;;;;;;;11.15;4.97;;;;;;;14.44;89.30;101701.94;1046544;28;20430;-81
2022/05/27 00:10:04;;;;;;;10.82;4.68;;;;;;;14.41;90.22;101708.53;1040026;28;20311;-81
2022/05/27 00:10:36;;;;;;;9.10;4.88;;;;;;;14.37;90.07;101706.50;1042790;28;20408;-81
2022/05/27 00:11:08;;;;;;;8.95;4.13;;;;;;;14.39;90.41;101707.13;1045182;28;20295;-81
2022/05/27 00:11:40;;;;;;;12.02;4.43;;;;;;;14.41;90.27;101708.53;1044243;28;20621;-81
2022/05/27 00:12:13;;;;;;;7.43;5.30;;;;;;;14.40;90.12;101701.53;1044507;28;20306;-79
2022/05/27 00:12:44;;;;;;;12.23;4.68;;;;;;;14.38;90.59;101703.63;1045130;28;20299;-81
2022/05/27 00:13:16;;;;;;;10.10;4.78;;;;;;;14.38;90.29;101697.44;1043871;28;20303;-81
2022/05/27 00:13:47;;;;;;;10.13;5.35;;;;;;;14.42;90.69;101702.13;1047048;28;20298;-81
2022/05/27 00:14:19;;;;;;;10.43;5.25;;;;;;;14.43;90.15;101693.06;1042101;28;20287;-81
2022/05/27 00:14:50;;;;;;;12.30;4.95;;;;;;;14.37;90.45;101701.97;1037412;28;20305;-80
2022/05/27 00:15:23;;;;;;;7.40;5.30;;;;;;;14.31;89.89;101697.50;1043835;28;20056;-81
2022/05/27 00:15:54;;;;;;;12.30;5.60;;;;;;;14.39;90.38;101699.88;1038978;28;20292;-82
2022/05/27 00:16:27;;;;;;;9.95;4.53;;;;;;;14.44;90.67;101694.72;1044003;28;20845;-81
2022/05/27 00:16:58;;;;;;;10.43;4.28;;;;;;;14.46;90.66;101699.84;1043743;28;20386;-81
2022/05/27 00:17:30;;;;;;;9.95;4.40;;;;;;;14.45;90.67;101698.22;1038867;28;20359;-81
2022/05/27 00:18:02;;;;;;;14.45;5.32;;;;;;;14.43;90.51;101695.75;1039547;28;20327;-82
2022/05/27 00:18:34;;;;;;;8.77;4.85;;;;;;;14.38;90.57;101690.22;1039823;28;20300;-81
2022/05/27 00:19:05;;;;;;;8.82;5.20;;;;;;;14.43;90.66;101693.06;1040870;28;20045;-82
2022/05/27 00:19:37;;;;;;;15.35;4.72;;;;;;;14.49;90.80;101694.88;1040134;28;20310;-81
2022/05/27 00:20:09;;;;;;;8.10;4.43;;;;;;;14.42;90.22;101696.75;1039892;28;20307;-81
2022/05/27 00:20:41;;;;;;;6.32;3.90;;;;;;;14.42;90.75;101696.75;1042438;28;20049;-81
2022/05/27 00:21:13;;;;;;;10.30;5.60;;;;;;;14.36;90.67;101694.97;1044001;28;20354;-82
2022/05/27 00:21:44;;;;;;;9.55;4.90;;;;;;;14.41;91.12;101699.66;1044675;28;20295;-81
2022/05/27 00:22:16;;;;;;;15.50;5.20;;;;;;;14.36;90.86;101696.84;1044199;28;20291;-81
2022/05/27 00:22:48;;;;;;;13.93;5.53;;;;;;;14.43;91.15;101695.75;1039019;28;20081;-82
2022/05/27 00:23:20;;;;;;;7.13;4.20;;;;;;;14.33;91.28;101700.78;1038147;28;20308;-81
2022/05/27 00:23:51;;;;;;;7.68;4.78;;;;;;;14.29;91.66;101702.25;1032616;28;20057;-81
2022/05/27 00:24:23;;;;;;;11.55;5.05;;;;;;;14.32;92.04;101704.50;1031680;28;20047;-81
2022/05/27 00:24:55;;;;;;;12.68;4.57;;;;;;;14.32;91.52;101701.81;1040134;28;20832;-81
2022/05/27 00:25:28;;;;;;;11.73;5.45;;;;;;;14.27;91.93;101706.19;1044900;28;20087;-81
2022/05/27 00:25:59;;;;;;;16.15;5.15;;;;;;;14.32;92.47;101701.81;1048839;28;20309;-81
2022/05/27 00:26:31;;;;;;;15.02;5.57;;;;;;;14.25;92.35;101714.47;1044481;28;20657;-81
2022/05/27 00:27:05;;;;;;;9.13;4.68;;;;;;;14.23;93.09;101708.47;1046634;28;20287;-81
2022/05/27 00:27:37;;;;;;;16.83;6.18;;;;;;;14.19;93.77;101715.31;1046327;28;20295;-81
2022/05/27 00:28:09;;;;;;;15.50;5.57;;;;;;;14.16;94.17;101710.41;1043913;28;20303;-81
2022/05/27 00:28:40;;;;;;;14.55;5.13;;;;;;;14.17;94.65;101714.72;1043948;28;20665;-80
2022/05/27 00:29:12;;;;;;;12.90;6.30;;;;;;;14.16;94.14;101716.56;1046615;28;20294;-80
2022/05/27 00:29:44;;;;;;;12.95;5.53;;;;;;;14.15;94.67;101709.56;1043825;28;20124;-80
2022/05/27 00:30:32;;;;;;;12.90;5.28;;;;;;;14.15;95.02;101711.44;1042829;28;20296;-80
2022/05/27 00:31:06;;;;;;;12.90;5.25;;;;;;;14.18;95.78;101717.16;1045514;28;20310;-80
2022/05/27 00:31:37;;;;;;;13.68;6.30;;;;;;;14.13;95.87;101716.19;1047532;28;20037;-81
2022/05/27 00:32:09;;;;;;;15.27;6.43;;;;;;;14.14;96.37;101717.84;1048413;28;20314;-81
2022/05/27 00:32:40;;;;;;;16.10;6.45;;;;;;;13.97;96.91;101709.53;1048028;28;20294;-81
2022/05/27 00:33:12;;;;;;;10.80;5.47;;;;;;;13.90;96.77;101717.59;1044413;28;20299;-80
2022/05/27 00:33:43;;;;;;;8.48;6.15;;;;;;;13.93;97.27;101713.66;1048111;28;20302;-81
2022/05/27 00:34:15;;;;;;;12.88;6.43;;;;;;;13.96;97.40;101715.06;1046771;28;20334;-80
2022/05/27 00:34:47;;;;;;;10.65;5.45;;;;;;;13.84;97.99;101713.09;1046765;28;20870;-80
2022/05/27 00:35:19;;;;;;;11.07;6.40;;;;;;;13.88;98.42;101722.34;1046509;28;20299;-80
2022/05/27 00:35:50;;;;;;;18.88;6.82;;;;;;;13.76;98.93;101726.75;1041801;28;20288;-80
2022/05/27 00:36:22;;;;;;;8.90;6.40;;;;;;;13.79;98.75;101723.66;1047526;28;20299;-80
2022/05/27 00:36:53;;;;;;;10.80;7.60;;;;;;;13.71;99.13;101726.59;1045072;28;20299;-80
2022/05/27 00:37:26;;;;;;;12.77;6.53;;;;;;;13.58;99.21;101727.47;1044655;28;20637;-80
2022/05/27 00:37:57;;;;;;;15.15;6.88;;;;;;;13.64;99.55;101730.31;1046371;28;20424;-80
2022/05/27 00:38:29;;;;;;;10.52;6.20;;;;;;;13.71;100.00;101739.97;1046808;28;20797;-80
2022/05/27 00:39:02;;;;;;;14.15;6.20;;;;;;;13.61;100.00;101737.75;1043116;28;20296;-81
2022/05/27 00:39:38;;;;;;;12.10;7.50;;;;;;;13.74;100.00;101744.06;1045452;28;20295;-82
2022/05/27 00:40:10;;;;;;;12.63;6.63;;;;;;;13.68;100.00;101737.69;1045427;28;20295;-81
2022/05/27 00:40:47;;;;;;;16.75;7.68;;;;;;;13.68;100.00;101753.75;1045874;28;20656;-81
2022/05/27 00:41:20;;;;;;;13.68;7.30;;;;;;;13.68;100.00;101745.72;1040931;28;20045;-80
2022/05/27 00:41:51;;;;;;;11.10;7.13;;;;;;;13.72;100.00;101744.28;1039234;28;20303;-80
2022/05/27 00:42:23;;;;;;;19.98;7.72;;;;;;;13.72;100.00;101748.84;1046583;28;20353;-80
2022/05/27 00:42:54;;;;;;;18.58;8.68;;;;;;;13.67;100.00;101748.63;1046500;28;20316;-80
2022/05/27 00:43:26;;;;;;;16.52;7.57;;;;;;;13.67;100.00;101749.44;1045743;28;20306;-80
2022/05/27 00:43:59;;;;;;;10.90;7.72;;;;;;;13.46;100.00;101758.63;1045816;28;20302;-81
2022/05/27 00:44:30;;;;;;;13.57;7.25;;;;;;;13.51;100.00;101752.63;1046197;28;20294;-81
2022/05/27 00:45:02;;;;;;;15.60;7.60;;;;;;;13.55;100.00;101746.63;1042335;28;20302;-81
2022/05/27 00:45:36;;;;;;;12.75;9.10;;;;;;;13.58;100.00;101748.06;1038697;28;20533;-81
2022/05/27 00:46:18;;;;;;;14.25;7.95;;;;;;;13.62;100.00;101743.91;1037789;28;20295;-81
2022/05/27 00:46:50;;;;;;;11.65;7.53;;;;;;;13.52;100.00;101741.72;1040967;28;20338;-80
2022/05/27 00:47:25;;;;;;;11.40;8.00;;;;;;;13.60;100.00;101737.97;1046602;28;20299;-81
2022/05/27 00:47:57;;;;;;;12.95;8.13;;;;;;;13.59;100.00;101747.03;1044267;28;20295;-80
2022/05/27 00:48:31;;;;;;;14.80;7.80;;;;;;;13.56;100.00;101742.09;1037130;28;20296;-80
2022/05/27 00:49:17;;;;;;;13.02;7.93;;;;;;;13.57;100.00;101736.53;1034110;28;20335;-80
2022/05/27 00:49:57;;;;;;;12.48;7.82;;;;;;;13.56;100.00;101742.94;1040861;28;20767;-79
2022/05/27 00:50:35;;;;;;;16.77;8.35;;;;;;;13.51;100.00;101736.56;1044129;28;20303;-79
2022/05/27 00:51:18;;;;;;;17.05;7.30;;;;;;;13.49;100.00;101735.97;1040175;28;20292;-79
2022/05/27 00:52:03;;;;;;;13.70;7.25;;;;;;;13.52;100.00;101733.69;1036305;28;20717;-79
2022/05/27 00:52:37;;;;;;;15.27;7.53;;;;;;;13.46;100.00;101744.44;1042320;28;20330;-79
2022/05/27 00:53:10;;;;;;;8.98;7.03;;;;;;;13.55;100.00;101735.94;1044191;28;20283;-79
2022/05/27 00:53:47;;;;;;;10.07;6.28;;;;;;;13.45;100.00;101727.56;1040782;28;20295;-79
2022/05/27 00:54:22;;;;;;;10.52;4.93;;;;;;;13.41;100.00;101734.34;1038131;28;20711;-79
2022/05/27 00:54:53;;;;;;;10.48;5.15;;;;;;;13.34;100.00;101725.53;1042877;28;20304;-78
2022/05/27 00:55:28;;;;;;;10.98;5.72;;;;;;;13.43;100.00;101715.41;1046189;28;20295;-79
2022/05/27 00:56:01;;;;;;;9.07;5.32;;;;;;;13.36;100.00;101709.25;1042819;28;20303;-79
2022/05/27 00:56:34;;;;;;;12.82;6.18;;;;;;;13.36;100.00;101711.94;1040460;28;20299;-79
2022/05/27 00:57:51;;;;;;;8.32;5.38;;;;;;;13.34;100.00;101708.66;1035733;28;20779;-79
2022/05/27 00:58:31;;;;;;;9.80;3.85;;;;;;;13.23;100.00;101702.94;1045406;28;20299;-80
2022/05/27 00:59:07;;;;;;;8.73;3.78;;;;;;;13.22;100.00;101712.00;1041724;28;20292;-79
2022/05/27 01:00:05;;;;;;;7.03;3.78;;;;;;;13.17;100.00;101716.31;1048477;28;20063;-79
2022/05/27 01:00:36;;;;;;;6.60;3.30;;;;;;;13.22;100.00;101714.69;1045612;28;20299;-79
2022/05/27 01:01:08;;;;;;;8.85;4.28;;;;;;;13.19;100.00;101719.63;1045304;28;20299;-79
2022/05/27 01:01:40;;;;;;;8.02;3.50;;;;;;;13.14;100.00;101725.56;1047050;28;20326;-78
2022/05/27 01:02:12;;;;;;;9.65;3.75;;;;;;;13.13;100.00;101726.59;1047232;28;20664;-78
2022/05/27 01:02:44;;;;;;;11.75;3.67;;;;;;;13.09;100.00;101720.03;1046793;28;20312;-78
2022/05/27 01:03:17;;;;;;;12.57;4.03;;;;;;;13.06;100.00;101723.13;1045654;28;20307;-77
2022/05/27 01:03:49;;;;;;;7.13;3.85;;;;;;;13.09;100.00;101722.72;1042173;28;20306;-78
2022/05/27 01:04:22;;;;;;;7.97;3.90;;;;;;;13.09;100.00;101719.22;1040956;28;20315;-78
2022/05/27 01:04:54;;;;;;;4.20;3.70;;;;;;;13.14;100.00;101714.88;1037400;28;20304;-78
2022/05/27 01:05:26;;;;;;;7.03;3.58;;;;;;;13.04;100.00;101717.19;1036981;28;20559;-79
2022/05/27 01:05:58;;;;;;;10.05;4.07;;;;;;;13.07;100.00;101716.75;1036571;28;20706;-78
2022/05/27 01:06:29;;;;;;;5.38;3.30;;;;;;;13.11;100.00;101712.63;1040428;28;20318;-78
2022/05/27 01:07:01;;;;;;;6.65;3.60;;;;;;;13.14;100.00;101719.41;1044804;28;20310;-78
2022/05/27 01:07:32;;;;;;;7.78;3.78;;;;;;;13.02;100.00;101713.88;1044302;28;20310;-78
2022/05/27 01:08:06;;;;;;;7.38;3.38;;;;;;;13.02;100.00;101719.25;1043871;28;20858;-79
2022/05/27 01:08:37;;;;;;;8.23;3.63;;;;;;;12.96;100.00;101717.41;1044415;28;20299;-78
2022/05/27 01:09:09;;;;;;;7.07;3.47;;;;;;;13.10;100.00;101716.31;1040986;28;20307;-78
2022/05/27 01:09:42;;;;;;;4.22;3.13;;;;;;;13.05;100.00;101713.47;1043017;28;20422;-79
2022/05/27 01:10:16;;;;;;;7.65;3.20;;;;;;;13.04;100.00;101717.19;1040268;28;20284;-78
2022/05/27 01:10:51;;;;;;;8.52;4.30;;;;;;;13.14;100.00;101708.69;1035731;28;20640;-79
2022/05/27 01:11:32;;;;;;;7.13;3.63;;;;;;;13.11;100.00;101709.13;1041061;28;20308;-78
2022/05/27 01:12:42;;;;;;;4.97;2.72;;;;;;;13.05;100.00;101713.47;1042688;28;20299;-78
2022/05/27 01:13:28;;;;;;;11.40;3.33;;;;;;;13.04;100.00;101709.16;1034827;28;20316;-79
2022/05/27 01:14:43;;;;;;;5.85;2.85;;;;;;;12.98;100.00;101715.34;1040781;28;20298;-78
2022/05/27 01:15:45;;;;;;;6.45;3.10;;;;;;;13.12;100.00;101714.25;1033653;28;20289;-78
2022/05/27 01:16:23;;;;;;;6.20;3.03;;;;;;;13.15;100.00;101724.56;1043413;28;20295;-78
2022/05/27 01:17:24;;;;;;;5.93;2.78;;;;;;;13.07;100.00;101722.09;1042514;28;20291;-78
2022/05/27 01:17:58;;;;;;;4.50;1.98;;;;;;;13.10;100.00;101713.66;1040083;28;20312;-78
2022/05/27 01:20:21;;;;;;;4.55;2.90;;;;;;;13.02;100.00;101713.88;1045347;28;20298;-78
2022/05/27 01:21:11;;;;;;;3.70;2.60;;;;;;;13.07;100.00;101719.44;1043496;28;20411;-78
2022/05/27 01:22:04;;;;;;;4.23;2.87;;;;;;;12.97;100.00;101717.19;1044336;28;21783;-79
2022/05/27 01:22:45;;;;;;;6.13;3.10;;;;;;;12.98;100.00;101713.50;1045785;28;20287;-78
2022/05/27 01:23:44;;;;;;;3.83;2.75;;;;;;;13.05;100.00;101713.47;1042815;28;20288;-78
2022/05/27 01:24:30;;;;;;;6.43;3.03;;;;;;;13.09;100.00;101713.88;1047169;28;20786;-78
2022/05/27 01:25:32;;;;;;;2.90;2.60;;;;;;;13.14;100.00;101717.53;1045514;28;20295;-79
2022/05/27 01:26:41;;;;;;;4.75;2.70;;;;;;;13.09;100.00;101717.34;1037611;28;20293;-78
2022/05/27 01:27:15;;;;;;;6.45;2.95;;;;;;;13.08;100.00;101718.38;1043895;28;20825;-79
2022/05/27 01:27:53;;;;;;;6.35;3.55;;;;;;;13.03;100.00;101718.22;1041321;28;20434;-78
2022/05/27 01:28:36;;;;;;;10.00;3.53;;;;;;;13.01;100.00;101717.59;1046748;28;20315;-78
2022/05/27 01:29:10;;;;;;;4.70;2.95;;;;;;;13.07;100.00;101727.44;1043400;28;20299;-79
2022/05/27 01:29:56;;;;;;;5.80;3.70;;;;;;;13.05;100.00;101724.16;1046733;28;20283;-78
2022/05/27 01:30:36;;;;;;;4.65;2.65;;;;;;;13.11;100.00;101731.34;1046133;28;20284;-78
2022/05/27 01:31:28;;;;;;;4.25;2.50;;;;;;;13.04;100.00;101727.88;1048473;28;20294;-78
2022/05/27 01:32:17;;;;;;;6.18;3.05;;;;;;;12.97;100.00;101729.75;1040628;28;20038;-78
2022/05/27 01:33:16;;;;;;;7.45;3.03;;;;;;;12.98;100.00;101729.53;1040082;28;20822;-78
2022/05/27 01:34:05;;;;;;;6.00;2.85;;;;;;;13.07;100.00;101731.97;1047749;28;20292;-78
2022/05/27 01:34:53;;;;;;;6.80;2.90;;;;;;;13.00;100.00;101729.34;1041673;28;20296;-79
2022/05/27 01:35:47;;;;;;;3.40;2.75;;;;;;;12.91;100.00;101733.28;1043013;28;20284;-78
2022/05/27 01:36:58;;;;;;;3.20;2.20;;;;;;;13.00;100.00;101732.00;1040033;28;20319;-76
2022/05/27 01:37:41;;;;;;;3.60;2.25;;;;;;;13.10;100.00;101732.38;1041773;28;20299;-78
2022/05/27 01:38:31;;;;;;;3.88;2.03;;;;;;;13.04;100.00;101735.91;1044907;28;20321;-78
2022/05/27 01:39:32;;;;;;;7.63;2.95;;;;;;;12.99;100.00;101738.38;1043605;28;20307;-78
2022/05/27 01:40:10;;;;;;;2.92;2.38;;;;;;;12.98;100.00;101742.09;1037345;28;20292;-78
2022/05/27 01:40:50;;;;;;;2.88;2.03;;;;;;;12.93;100.00;101737.38;1038594;28;20332;-79
2022/05/27 01:41:29;;;;;;;5.88;2.97;;;;;;;12.91;100.00;101733.28;1040096;28;20635;-79
2022/05/27 01:42:25;;;;;;;2.88;2.30;;;;;;;12.91;100.00;101734.09;1038092;28;20059;-79
2022/05/27 01:43:15;;;;;;;6.10;2.45;;;;;;;13.00;100.00;101737.34;1034534;28;20655;-78
2022/05/27 01:44:11;;;;;;;6.28;2.72;;;;;;;12.91;100.00;101738.63;1037966;28;20300;-78
2022/05/27 01:44:51;;;;;;;4.68;2.60;;;;;;;12.88;100.00;101739.03;1042078;28;20296;-78
2022/05/27 01:45:40;;;;;;;5.35;2.33;;;;;;;12.86;100.00;101741.06;1044110;28;20820;-78
2022/05/27 01:46:17;;;;;;;3.80;2.17;;;;;;;12.89;100.00;101738.00;1046606;28;20773;-78
2022/05/27 01:46:49;;;;;;;5.10;2.53;;;;;;;12.91;100.00;101735.94;1044137;28;20337;-78
2022/05/27 01:47:48;;;;;;;5.18;2.55;;;;;;;12.99;100.00;101735.72;1045875;28;20332;-78
2022/05/27 01:48:28;;;;;;;4.95;2.65;;;;;;;12.97;100.00;101738.59;1031205;28;20811;-79
2022/05/27 01:49:09;;;;;;;4.70;2.80;;;;;;;12.92;100.00;101737.59;1040820;28;20299;-77
2022/05/27 01:49:44;;;;;;;5.47;2.92;;;;;;;12.89;100.00;101736.16;1035738;28;20296;-77
2022/05/27 01:50:24;;;;;;;4.88;2.70;;;;;;;12.89;100.00;101736.16;1035576;28;20297;-76
2022/05/27 01:51:03;;;;;;;6.80;2.28;;;;;;;12.85;100.00;101739.44;1035155;28;20300;-77
2022/05/27 01:51:40;;;;;;;6.63;2.72;;;;;;;12.75;100.00;101747.91;1034655;28;20782;-76
2022/05/27 01:52:19;;;;;;;4.13;2.55;;;;;;;12.76;100.00;101746.03;1032826;28;20297;-76
2022/05/27 01:52:58;;;;;;;4.75;2.65;;;;;;;12.76;100.00;101738.84;1034790;28;20336;-76
2022/05/27 01:53:49;;;;;;;8.73;2.97;;;;;;;12.81;100.00;101743.56;1035357;28;20390;-76
2022/05/27 01:54:36;;;;;;;4.72;2.70;;;;;;;12.78;100.00;101743.97;1035737;28;20300;-78
2022/05/27 01:55:13;;;;;;;3.65;2.65;;;;;;;12.83;100.00;101741.50;1042808;28;20827;-78
2022/05/27 01:55:55;;;;;;;3.63;3.25;;;;;;;12.80;100.00;101736.56;1048400;28;20302;-78
2022/05/27 01:56:42;;;;;;;8.73;2.92;;;;;;;12.82;100.00;101739.84;1042382;28;20302;-79
2022/05/27 01:57:24;;;;;;;6.80;2.53;;;;;;;12.83;100.00;101731.63;1039731;28;20782;-79
2022/05/27 01:58:01;;;;;;;7.32;3.53;;;;;;;12.81;100.00;101733.69;1038011;28;20631;-78
2022/05/27 01:58:36;;;;;;;4.25;2.65;;;;;;;12.78;100.00;101739.44;1035980;28;20292;-78
2022/05/27 01:59:46;;;;;;;2.53;2.33;;;;;;;12.85;100.00;101732.22;1037356;28;20300;-78
2022/05/27 02:00:23;;;;;;;3.00;2.70;;;;;;;12.69;100.00;101725.50;1023248;28;20678;-78
2022/05/27 02:00:55;;;;;;;6.55;3.17;;;;;;;12.71;100.00;101732.47;1032318;28;20308;-78
2022/05/27 02:01:30;;;;;;;6.07;3.05;;;;;;;12.73;100.00;101728.56;1035941;28;20296;-79
2022/05/27 02:02:10;;;;;;;6.60;2.70;;;;;;;12.73;100.00;101727.75;1041723;28;20281;-78
2022/05/27 02:02:46;;;;;;;6.25;3.22;;;;;;;12.78;100.00;101719.91;1044218;28;20279;-78
2022/05/27 02:03:32;;;;;;;6.45;3.03;;;;;;;12.76;100.00;101733.50;1035989;28;20356;-79
2022/05/27 02:04:15;;;;;;;5.93;3.00;;;;;;;12.83;100.00;101730.81;1034399;28;20293;-79
2022/05/27 02:04:55;;;;;;;4.65;3.20;;;;;;;12.73;100.00;101725.06;1035511;28;20288;-79
2022/05/27 02:05:34;;;;;;;3.67;2.60;;;;;;;12.79;100.00;101718.88;1035753;28;20296;-78
2022/05/27 02:06:12;;;;;;;6.13;3.47;;;;;;;12.81;100.00;101722.16;1043718;28;20309;-78
2022/05/27 02:06:47;;;;;;;7.28;3.67;;;;;;;12.78;100.00;101722.59;1042262;28;20765;-78
2022/05/27 02:07:40;;;;;;;4.22;2.83;;;;;;;12.76;100.00;101719.31;1039936;28;20295;-79
2022/05/27 02:08:16;;;;;;;11.90;3.53;;;;;;;12.80;100.00;101715.19;1040130;28;20315;-78
2022/05/27 02:08:58;;;;;;;4.10;3.03;;;;;;;12.88;100.00;101713.13;1043537;28;20303;-79
2022/05/27 02:09:35;;;;;;;5.95;3.30;;;;;;;12.86;100.00;101720.50;1043010;28;20295;-79
2022/05/27 02:10:13;;;;;;;10.13;3.22;;;;;;;12.88;100.00;101712.31;1040668;28;20288;-78
2022/05/27 02:10:44;;;;;;;5.40;3.30;;;;;;;12.90;100.00;101718.25;1041746;28;20306;-78
2022/05/27 02:11:19;;;;;;;6.30;3.55;;;;;;;12.74;100.00;101714.16;1044325;28;20377;-78
2022/05/27 02:11:57;;;;;;;5.35;2.97;;;;;;;12.88;100.00;101713.13;1040079;28;20288;-78
2022/05/27 02:12:36;;;;;;;5.05;4.10;;;;;;;12.85;100.00;101713.50;1036326;28;20292;-76
2022/05/27 02:13:15;;;;;;;6.47;3.95;;;;;;;12.88;100.00;101720.31;1031448;28;20819;-76
2022/05/27 02:13:53;;;;;;;7.00;3.53;;;;;;;12.87;100.00;101713.31;1030642;28;20297;-76
2022/05/27 02:14:35;;;;;;;4.28;3.40;;;;;;;12.83;100.00;101725.44;1035044;28;20298;-76
2022/05/27 02:15:17;;;;;;;10.52;3.15;;;;;;;12.71;100.00;101721.78;1038618;28;20323;-77
2022/05/27 02:15:51;;;;;;;6.15;4.80;;;;;;;12.81;100.00;101717.66;1043629;28;20701;-77
2022/05/27 02:16:29;;;;;;;10.25;3.55;;;;;;;12.80;100.00;101721.34;1035454;28;20700;-77
2022/05/27 02:17:05;;;;;;;4.93;3.40;;;;;;;12.89;100.00;101725.47;1034530;28;20292;-77
2022/05/27 02:17:41;;;;;;;5.72;3.50;;;;;;;12.86;100.00;101723.19;1035446;28;20296;-77
2022/05/27 02:18:16;;;;;;;5.13;3.58;;;;;;;12.81;100.00;101722.16;1036357;28;20301;-78
2022/05/27 02:18:57;;;;;;;5.90;3.42;;;;;;;12.68;100.00;101729.19;1041683;28;20296;-76
2022/05/27 02:19:33;;;;;;;6.55;4.40;;;;;;;12.71;100.00;101729.81;1039544;28;20292;-76
2022/05/27 02:20:10;;;;;;;6.45;3.78;;;;;;;12.68;100.00;101723.84;1037782;28;20299;-76
2022/05/27 02:20:46;;;;;;;4.63;3.42;;;;;;;12.78;100.00;101718.06;1043211;28;20614;-76
2022/05/27 02:21:32;;;;;;;8.75;3.95;;;;;;;12.75;100.00;101728.34;1045751;28;20697;-76
2022/05/27 02:22:07;;;;;;;6.70;3.15;;;;;;;12.77;100.00;101726.28;1047372;28;20298;-76
2022/05/27 02:22:46;;;;;;;5.22;2.92;;;;;;;12.74;100.00;101732.06;1037326;28;20735;-76
2022/05/27 02:23:25;;;;;;;5.05;3.10;;;;;;;12.78;100.00;101734.09;1031591;28;20316;-77
2022/05/27 02:24:01;;;;;;;7.18;3.13;;;;;;;12.83;100.00;101730.81;1034609;28;20301;-77
2022/05/27 02:24:40;;;;;;;4.18;3.53;;;;;;;12.83;100.00;101736.16;1038570;28;20296;-77
2022/05/27 02:25:17;;;;;;;3.78;3.13;;;;;;;12.78;100.00;101734.09;1041693;28;20288;-76
2022/05/27 02:25:51;;;;;;;4.22;3.30;;;;;;;12.78;100.00;101741.31;1039420;28;20292;-77
2022/05/27 02:26:24;;;;;;;10.07;3.65;;;;;;;12.74;100.00;101730.22;1035276;28;20301;-77
2022/05/27 02:26:59;;;;;;;5.65;3.45;;;;;;;12.75;100.00;101736.38;1037117;28;20312;-76
2022/05/27 02:28:04;;;;;;;5.28;3.83;;;;;;;12.73;100.00;101738.44;1041077;28;20699;-76
2022/05/27 02:28:41;;;;;;;7.50;3.78;;;;;;;12.55;100.00;101739.88;1036277;28;20292;-77
2022/05/27 02:29:18;;;;;;;5.90;3.35;;;;;;;12.60;100.00;101740.13;1039193;28;20300;-77
2022/05/27 02:29:52;;;;;;;7.55;3.33;;;;;;;12.71;100.00;101743.19;1035197;28;20428;-77
2022/05/27 02:30:29;;;;;;;5.20;3.63;;;;;;;12.64;100.00;101737.84;1034718;28;21300;-77
2022/05/27 02:31:05;;;;;;;7.22;3.50;;;;;;;12.49;100.00;101740.72;1031658;28;20676;-78
2022/05/27 02:31:38;;;;;;;7.82;3.60;;;;;;;12.55;100.00;101739.88;1034466;28;20811;-76
2022/05/27 02:32:13;;;;;;;6.18;3.67;;;;;;;12.62;100.00;101740.72;1035456;28;20289;-76
2022/05/27 02:35:07;;;;;;;7.32;3.42;;;;;;;12.63;100.00;101737.03;1040535;28;20303;-76
2022/05/27 02:35:30;;;;;;;7.55;3.40;;;;;;;12.53;100.00;101735.78;1047551;28;20660;-76
2022/05/27 02:36:04;;;;;;;7.18;3.67;;;;;;;12.53;100.00;101731.25;1043678;28;20299;-76
2022/05/27 02:36:42;;;;;;;6.38;4.03;;;;;;;12.55;100.00;101734.53;1041690;28;20296;-76
2022/05/27 02:37:19;;;;;;;5.85;3.55;;;;;;;12.53;100.00;101733.13;1041619;28;20304;-76
2022/05/27 02:37:53;;;;;;;4.47;3.00;;;;;;;12.31;100.00;101733.31;1039632;28;20300;-76
2022/05/27 02:38:26;;;;;;;4.38;3.15;;;;;;;12.43;100.00;101730.88;1039177;28;20300;-76
2022/05/27 02:38:58;;;;;;;5.22;3.17;;;;;;;12.46;100.00;101727.78;1035339;28;20300;-76
2022/05/27 02:39:30;;;;;;;10.50;3.83;;;;;;;12.47;100.00;101726.75;1038936;28;20319;-76
2022/05/27 02:40:07;;;;;;;6.25;3.50;;;;;;;12.51;100.00;101725.31;1033911;28;20297;-77
2022/05/27 02:41:06;;;;;;;5.22;3.85;;;;;;;12.46;100.00;101719.75;1038306;28;20292;-77
2022/05/27 02:41:50;;;;;;;6.47;3.70;;;;;;;12.29;100.00;101718.53;1030639;28;20300;-76
2022/05/27 02:42:27;;;;;;;8.35;3.70;;;;;;;12.40;100.00;101720.59;1036608;28;20334;-77
2022/05/27 02:43:12;;;;;;;7.13;3.85;;;;;;;12.43;100.00;101720.19;1039606;28;20296;-77
2022/05/27 02:44:00;;;;;;;6.53;3.33;;;;;;;12.32;100.00;101723.47;1035210;28;20435;-76
2022/05/27 02:44:57;;;;;;;5.13;3.35;;;;;;;12.40;100.00;101725.94;1039492;28;20288;-76
2022/05/27 02:45:44;;;;;;;5.43;3.80;;;;;;;12.37;100.00;101726.34;1037523;28;20682;-76
2022/05/27 02:46:25;;;;;;;3.58;3.25;;;;;;;12.35;100.00;101728.41;1036910;28;20307;-76
2022/05/27 02:47:15;;;;;;;5.18;3.38;;;;;;;12.41;100.00;101719.56;1039368;28;20319;-76
2022/05/27 02:47:52;;;;;;;8.27;4.32;;;;;;;12.34;100.00;101732.13;1043538;28;20095;-76
2022/05/27 02:48:34;;;;;;;5.38;3.70;;;;;;;12.39;100.00;101729.63;1043904;28;20299;-77
2022/05/27 02:49:47;;;;;;;9.40;3.25;;;;;;;12.36;100.00;101724.72;1039449;28;20298;-76
2022/05/27 02:50:26;;;;;;;5.70;3.58;;;;;;;12.39;100.00;101729.63;1042523;28;20366;-76
2022/05/27 02:51:09;;;;;;;6.32;3.40;;;;;;;12.32;100.00;101740.31;1043456;28;20322;-76
2022/05/27 02:52:26;;;;;;;6.90;3.10;;;;;;;12.39;100.00;101740.31;1043089;28;20507;-76
2022/05/27 02:53:19;;;;;;;6.82;3.78;;;;;;;12.40;100.00;101736.63;1043743;28;20369;-76
2022/05/27 02:54:00;;;;;;;5.70;3.47;;;;;;;12.40;100.00;101735.81;1043876;28;20300;-76
2022/05/27 02:54:48;;;;;;;8.40;4.50;;;;;;;12.42;100.00;101729.22;1043786;28;20299;-76
2022/05/27 02:55:49;;;;;;;6.90;3.63;;;;;;;12.41;100.00;101735.59;1043927;28;20043;-76
2022/05/27 02:56:31;;;;;;;4.60;3.50;;;;;;;12.45;100.00;101734.16;1043636;28;20295;-76
2022/05/27 02:57:27;;;;;;;4.18;3.33;;;;;;;12.27;100.00;101736.63;1039144;28;20380;-76
2022/05/27 02:58:02;;;;;;;5.90;3.60;;;;;;;12.38;100.00;101734.16;1036424;28;20288;-76
2022/05/27 02:58:33;;;;;;;7.47;3.58;;;;;;;12.42;100.00;101737.25;1039740;28;20288;-76
2022/05/27 02:59:08;;;;;;;8.10;4.35;;;;;;;12.44;100.00;101731.69;1043137;28;20314;-76
2022/05/27 02:59:40;;;;;;;5.25;4.13;;;;;;;12.41;100.00;101737.44;1043469;28;20307;-76
2022/05/27 03:00:22;;;;;;;5.03;3.67;;;;;;;12.45;100.00;101742.16;1039367;28;20296;-77
2022/05/27 03:00:53;;;;;;;11.57;4.43;;;;;;;12.45;100.00;101733.34;1039772;28;20426;-76
2022/05/27 03:01:25;;;;;;;11.00;4.57;;;;;;;12.44;100.00;101731.69;1040320;28;20304;-77